Rio Vista Municipal (O88)
Rio Vista, CA
Field Elevation: 22
Lat: 38°11.60N  Long: 121°42.22W
CTAF/Unicom Freq: 122.7250
   
     For Weather-by-Phone, call (707) 374-5396
Weather Advisories
2017-06-29   02:05 Z
Altimeter 29.82" Hg
Wind 220° @ 14 KT
Gusts 22 KT
Visibility --
Ceiling CLR
Temperature 25° C (77° F)
Dewpoint 12° C (54° F)
Relative Humidity 46%
Density Altitude 1,300 feet
Condensation Altitude 6,400 feet
Wind and Runways
Indicated Runway = 25
Headwind = 12 kt
Crosswind = 7 kt
History
 
 
 
More Info
All DigiWx sites map
NOAA Forecast
 
Airport IQ 5010
(DUC) Stack Farm
(CA37) Dominican
 
about DigiWx
 
FAA Disclaimer: The data displayed is for advisory purposes only and is not to be used for flight planning or operations. For official data, please call (707) 374-5396 to hear the current automated AWOS voice message.
  METAR O88 290205Z AUTO 22014G22KT CLR 25/12 A2982